sensor_id;sensor_type;location;lat;lon;timestamp;temperature;humidity
16995;DHT22;8614;48.522;9.206;2024-02-23T00:00:49;6.50;99.90
16995;DHT22;8614;48.522;9.206;2024-02-23T00:03:16;6.50;99.90
16995;DHT22;8614;48.522;9.206;2024-02-23T00:05:43;6.50;99.90
16995;DHT22;8614;48.522;9.206;2024-02-23T00:08:10;6.50;99.90
16995;DHT22;8614;48.522;9.206;2024-02-23T00:10:36;6.50;99.90
16995;DHT22;8614;48.522;9.206;2024-02-23T00:13:05;6.50;99.90
16995;DHT22;8614;48.522;9.206;2024-02-23T00:15:31;6.50;99.90
16995;DHT22;8614;48.522;9.206;2024-02-23T00:17:58;6.40;99.90
16995;DHT22;8614;48.522;9.206;2024-02-23T00:20:25;6.50;99.90
16995;DHT22;8614;48.522;9.206;2024-02-23T00:22:51;6.50;99.90
16995;DHT22;8614;48.522;9.206;2024-02-23T00:25:18;6.40;99.90
16995;DHT22;8614;48.522;9.206;2024-02-23T00:27:45;6.40;99.90
16995;DHT22;8614;48.522;9.206;2024-02-23T00:30:14;6.40;99.90
16995;DHT22;8614;48.522;9.206;2024-02-23T00:32:41;6.40;99.90
16995;DHT22;8614;48.522;9.206;2024-02-23T00:35:08;6.30;99.90
16995;DHT22;8614;48.522;9.206;2024-02-23T00:37:35;6.30;99.90
16995;DHT22;8614;48.522;9.206;2024-02-23T00:40:02;6.20;99.90
16995;DHT22;8614;48.522;9.206;2024-02-23T00:42:29;6.20;99.90
16995;DHT22;8614;48.522;9.206;2024-02-23T00:44:56;6.20;99.90
16995;DHT22;8614;48.522;9.206;2024-02-23T00:47:24;6.10;99.90
16995;DHT22;8614;48.522;9.206;2024-02-23T00:49:50;6.00;99.90
16995;DHT22;8614;48.522;9.206;2024-02-23T00:52:17;5.90;99.90
16995;DHT22;8614;48.522;9.206;2024-02-23T00:54:44;5.90;99.90
16995;DHT22;8614;48.522;9.206;2024-02-23T00:57:10;5.80;99.90
16995;DHT22;8614;48.522;9.206;2024-02-23T00:59:37;5.80;99.90
16995;DHT22;8614;48.522;9.206;2024-02-23T01:02:04;5.80;99.90
16995;DHT22;8614;48.522;9.206;2024-02-23T01:04:32;5.70;99.90
16995;DHT22;8614;48.522;9.206;2024-02-23T01:06:59;5.70;99.90
16995;DHT22;8614;48.522;9.206;2024-02-23T01:09:26;5.70;99.90
16995;DHT22;8614;48.522;9.206;2024-02-23T01:11:53;5.70;99.90
16995;DHT22;8614;48.522;9.206;2024-02-23T01:14:20;5.70;99.90
16995;DHT22;8614;48.522;9.206;2024-02-23T01:16:46;5.70;99.90
16995;DHT22;8614;48.522;9.206;2024-02-23T01:19:13;5.60;99.90
16995;DHT22;8614;48.522;9.206;2024-02-23T01:21:42;5.50;99.90
16995;DHT22;8614;48.522;9.206;2024-02-23T01:24:09;5.50;99.90
16995;DHT22;8614;48.522;9.206;2024-02-23T01:26:36;5.50;99.90
16995;DHT22;8614;48.522;9.206;2024-02-23T01:29:03;5.50;99.90
16995;DHT22;8614;48.522;9.206;2024-02-23T01:31:29;5.50;99.90
16995;DHT22;8614;48.522;9.206;2024-02-23T01:33:56;5.50;99.90
16995;DHT22;8614;48.522;9.206;2024-02-23T01:36:23;5.50;99.90
16995;DHT22;8614;48.522;9.206;2024-02-23T01:38:51;5.40;99.90
16995;DHT22;8614;48.522;9.206;2024-02-23T01:41:18;5.50;99.90
16995;DHT22;8614;48.522;9.206;2024-02-23T01:43:45;5.40;99.90
16995;DHT22;8614;48.522;9.206;2024-02-23T01:46:11;5.40;99.90
16995;DHT22;8614;48.522;9.206;2024-02-23T01:48:39;5.40;99.90
16995;DHT22;8614;48.522;9.206;2024-02-23T01:51:06;5.40;99.90
16995;DHT22;8614;48.522;9.206;2024-02-23T01:53:33;5.40;99.90
16995;DHT22;8614;48.522;9.206;2024-02-23T01:56:01;5.40;99.90
16995;DHT22;8614;48.522;9.206;2024-02-23T01:58:28;5.30;99.90
16995;DHT22;8614;48.522;9.206;2024-02-23T02:00:56;5.30;99.90
16995;DHT22;8614;48.522;9.206;2024-02-23T02:03:23;5.40;99.90
16995;DHT22;8614;48.522;9.206;2024-02-23T02:05:50;5.40;99.90
16995;DHT22;8614;48.522;9.206;2024-02-23T02:08:18;5.40;99.90
16995;DHT22;8614;48.522;9.206;2024-02-23T02:10:45;5.30;99.90
16995;DHT22;8614;48.522;9.206;2024-02-23T02:13:14;5.40;99.90
16995;DHT22;8614;48.522;9.206;2024-02-23T02:15:40;5.40;99.90
16995;DHT22;8614;48.522;9.206;2024-02-23T02:18:09;5.40;99.90
16995;DHT22;8614;48.522;9.206;2024-02-23T02:20:37;5.40;99.90
16995;DHT22;8614;48.522;9.206;2024-02-23T02:23:07;5.40;99.90
16995;DHT22;8614;48.522;9.206;2024-02-23T02:25:34;5.40;99.90
16995;DHT22;8614;48.522;9.206;2024-02-23T02:28:01;5.40;99.90
16995;DHT22;8614;48.522;9.206;2024-02-23T02:30:29;5.40;99.90
16995;DHT22;8614;48.522;9.206;2024-02-23T02:32:56;5.40;99.90
16995;DHT22;8614;48.522;9.206;2024-02-23T02:35:22;5.40;99.90
16995;DHT22;8614;48.522;9.206;2024-02-23T02:37:49;5.40;99.90
16995;DHT22;8614;48.522;9.206;2024-02-23T02:40:16;5.50;99.90
16995;DHT22;8614;48.522;9.206;2024-02-23T02:42:43;5.50;99.90
16995;DHT22;8614;48.522;9.206;2024-02-23T02:45:10;5.50;99.90
16995;DHT22;8614;48.522;9.206;2024-02-23T02:47:38;5.50;99.90
16995;DHT22;8614;48.522;9.206;2024-02-23T02:50:06;5.50;99.90
16995;DHT22;8614;48.522;9.206;2024-02-23T02:52:33;5.50;99.90
16995;DHT22;8614;48.522;9.206;2024-02-23T02:54:59;5.50;99.90
16995;DHT22;8614;48.522;9.206;2024-02-23T02:57:26;5.50;99.90
16995;DHT22;8614;48.522;9.206;2024-02-23T02:59:53;5.50;99.90
16995;DHT22;8614;48.522;9.206;2024-02-23T03:02:20;5.50;99.90
16995;DHT22;8614;48.522;9.206;2024-02-23T03:04:48;5.50;99.90
16995;DHT22;8614;48.522;9.206;2024-02-23T03:07:16;5.50;99.90
16995;DHT22;8614;48.522;9.206;2024-02-23T03:09:43;5.50;99.90
16995;DHT22;8614;48.522;9.206;2024-02-23T03:12:10;5.50;99.90
16995;DHT22;8614;48.522;9.206;2024-02-23T03:14:37;5.50;99.90
16995;DHT22;8614;48.522;9.206;2024-02-23T03:17:06;5.50;99.90
16995;DHT22;8614;48.522;9.206;2024-02-23T03:19:33;5.50;99.90
16995;DHT22;8614;48.522;9.206;2024-02-23T03:22:01;5.50;99.90
16995;DHT22;8614;48.522;9.206;2024-02-23T03:24:28;5.50;99.90
16995;DHT22;8614;48.522;9.206;2024-02-23T03:26:55;5.50;99.90
16995;DHT22;8614;48.522;9.206;2024-02-23T03:29:22;5.50;99.90
16995;DHT22;8614;48.522;9.206;2024-02-23T03:31:49;5.50;99.90
16995;DHT22;8614;48.522;9.206;2024-02-23T03:34:16;5.50;99.90
16995;DHT22;8614;48.522;9.206;2024-02-23T03:36:44;5.50;99.90
16995;DHT22;8614;48.522;9.206;2024-02-23T03:39:12;5.50;99.90
16995;DHT22;8614;48.522;9.206;2024-02-23T03:41:39;5.50;99.90
16995;DHT22;8614;48.522;9.206;2024-02-23T03:44:06;5.50;99.90
16995;DHT22;8614;48.522;9.206;2024-02-23T03:46:33;5.50;99.90
16995;DHT22;8614;48.522;9.206;2024-02-23T03:49:00;5.50;99.90
16995;DHT22;8614;48.522;9.206;2024-02-23T03:51:27;5.50;99.90
16995;DHT22;8614;48.522;9.206;2024-02-23T03:53:53;5.50;99.90
16995;DHT22;8614;48.522;9.206;2024-02-23T03:56:22;5.40;99.90
16995;DHT22;8614;48.522;9.206;2024-02-23T03:58:49;5.40;99.90
16995;DHT22;8614;48.522;9.206;2024-02-23T04:01:16;5.40;99.90
16995;DHT22;8614;48.522;9.206;2024-02-23T04:03:43;5.40;99.90
16995;DHT22;8614;48.522;9.206;2024-02-23T04:06:09;5.40;99.90
16995;DHT22;8614;48.522;9.206;2024-02-23T04:08:36;5.40;99.90
16995;DHT22;8614;48.522;9.206;2024-02-23T04:11:03;5.40;99.90
16995;DHT22;8614;48.522;9.206;2024-02-23T04:13:31;5.40;99.90
16995;DHT22;8614;48.522;9.206;2024-02-23T04:16:00;5.40;99.90
16995;DHT22;8614;48.522;9.206;2024-02-23T04:18:27;5.40;99.90
16995;DHT22;8614;48.522;9.206;2024-02-23T04:20:54;5.30;99.90
16995;DHT22;8614;48.522;9.206;2024-02-23T04:23:20;5.30;99.90
16995;DHT22;8614;48.522;9.206;2024-02-23T04:25:47;5.30;99.90
16995;DHT22;8614;48.522;9.206;2024-02-23T04:28:16;5.30;99.90
16995;DHT22;8614;48.522;9.206;2024-02-23T04:30:44;5.30;99.90
16995;DHT22;8614;48.522;9.206;2024-02-23T04:33:11;5.30;99.90
16995;DHT22;8614;48.522;9.206;2024-02-23T04:35:38;5.30;99.90
16995;DHT22;8614;48.522;9.206;2024-02-23T04:38:05;5.30;99.90
16995;DHT22;8614;48.522;9.206;2024-02-23T04:40:32;5.30;99.90
16995;DHT22;8614;48.522;9.206;2024-02-23T04:42:58;5.30;99.90
16995;DHT22;8614;48.522;9.206;2024-02-23T04:45:25;5.30;99.90
16995;DHT22;8614;48.522;9.206;2024-02-23T04:47:53;5.20;99.90
16995;DHT22;8614;48.522;9.206;2024-02-23T04:50:20;5.20;99.90
16995;DHT22;8614;48.522;9.206;2024-02-23T04:52:47;5.20;99.90
16995;DHT22;8614;48.522;9.206;2024-02-23T04:55:14;5.20;99.90
16995;DHT22;8614;48.522;9.206;2024-02-23T04:57:40;5.20;99.90
16995;DHT22;8614;48.522;9.206;2024-02-23T05:00:08;5.20;99.90
16995;DHT22;8614;48.522;9.206;2024-02-23T05:02:35;5.20;99.90
16995;DHT22;8614;48.522;9.206;2024-02-23T05:05:04;5.20;99.90
16995;DHT22;8614;48.522;9.206;2024-02-23T05:07:31;5.20;99.90
16995;DHT22;8614;48.522;9.206;2024-02-23T05:09:57;5.20;99.90
16995;DHT22;8614;48.522;9.206;2024-02-23T05:12:24;5.10;99.90
16995;DHT22;8614;48.522;9.206;2024-02-23T05:14:51;5.10;99.90
16995;DHT22;8614;48.522;9.206;2024-02-23T05:17:18;5.10;99.90
16995;DHT22;8614;48.522;9.206;2024-02-23T05:19:45;5.10;99.90
16995;DHT22;8614;48.522;9.206;2024-02-23T05:22:13;5.00;99.90
16995;DHT22;8614;48.522;9.206;2024-02-23T05:24:40;5.00;99.90
16995;DHT22;8614;48.522;9.206;2024-02-23T05:27:07;5.00;99.90
16995;DHT22;8614;48.522;9.206;2024-02-23T05:29:33;5.00;99.90
16995;DHT22;8614;48.522;9.206;2024-02-23T05:32:00;5.00;99.90
16995;DHT22;8614;48.522;9.206;2024-02-23T05:34:27;5.00;99.90
16995;DHT22;8614;48.522;9.206;2024-02-23T05:36:54;5.00;99.90
16995;DHT22;8614;48.522;9.206;2024-02-23T05:39:22;5.00;99.90
16995;DHT22;8614;48.522;9.206;2024-02-23T05:41:49;5.00;99.90
16995;DHT22;8614;48.522;9.206;2024-02-23T05:44:16;5.00;99.90
16995;DHT22;8614;48.522;9.206;2024-02-23T05:46:43;5.00;99.90
16995;DHT22;8614;48.522;9.206;2024-02-23T05:49:10;5.10;99.90
16995;DHT22;8614;48.522;9.206;2024-02-23T05:51:37;5.10;99.90
16995;DHT22;8614;48.522;9.206;2024-02-23T05:54:04;5.00;99.90
16995;DHT22;8614;48.522;9.206;2024-02-23T05:56:32;5.00;99.90
16995;DHT22;8614;48.522;9.206;2024-02-23T05:58:59;5.00;99.90
16995;DHT22;8614;48.522;9.206;2024-02-23T06:01:26;5.00;99.90
16995;DHT22;8614;48.522;9.206;2024-02-23T06:03:52;5.00;99.90
16995;DHT22;8614;48.522;9.206;2024-02-23T06:06:20;4.90;99.90
16995;DHT22;8614;48.522;9.206;2024-02-23T06:08:47;4.90;99.90
16995;DHT22;8614;48.522;9.206;2024-02-23T06:11:15;4.90;99.90
16995;DHT22;8614;48.522;9.206;2024-02-23T06:13:43;4.90;99.90
16995;DHT22;8614;48.522;9.206;2024-02-23T06:16:10;4.90;99.90
16995;DHT22;8614;48.522;9.206;2024-02-23T06:18:39;4.90;99.90
16995;DHT22;8614;48.522;9.206;2024-02-23T06:21:14;4.90;99.90
16995;DHT22;8614;48.522;9.206;2024-02-23T06:23:41;4.80;99.90
16995;DHT22;8614;48.522;9.206;2024-02-23T06:26:08;4.80;99.90
16995;DHT22;8614;48.522;9.206;2024-02-23T06:28:35;4.80;99.90
16995;DHT22;8614;48.522;9.206;2024-02-23T06:31:04;4.80;99.90
16995;DHT22;8614;48.522;9.206;2024-02-23T06:33:31;4.80;99.90
16995;DHT22;8614;48.522;9.206;2024-02-23T06:35:58;4.90;99.90
16995;DHT22;8614;48.522;9.206;2024-02-23T06:38:25;4.90;99.90
16995;DHT22;8614;48.522;9.206;2024-02-23T06:40:52;4.90;99.90
16995;DHT22;8614;48.522;9.206;2024-02-23T06:43:19;4.90;99.90
16995;DHT22;8614;48.522;9.206;2024-02-23T06:45:45;4.90;99.90
16995;DHT22;8614;48.522;9.206;2024-02-23T06:48:14;4.90;99.90
16995;DHT22;8614;48.522;9.206;2024-02-23T06:50:40;4.90;99.90
16995;DHT22;8614;48.522;9.206;2024-02-23T06:53:07;5.00;99.90
16995;DHT22;8614;48.522;9.206;2024-02-23T06:55:34;5.00;99.90
16995;DHT22;8614;48.522;9.206;2024-02-23T06:58:01;5.00;99.90
16995;DHT22;8614;48.522;9.206;2024-02-23T07:00:30;5.00;99.90
16995;DHT22;8614;48.522;9.206;2024-02-23T07:02:57;5.00;99.90
16995;DHT22;8614;48.522;9.206;2024-02-23T07:05:28;5.00;99.90
16995;DHT22;8614;48.522;9.206;2024-02-23T07:07:55;5.10;99.90
16995;DHT22;8614;48.522;9.206;2024-02-23T07:10:22;5.10;99.90
16995;DHT22;8614;48.522;9.206;2024-02-23T07:12:51;5.10;99.90
16995;DHT22;8614;48.522;9.206;2024-02-23T07:15:19;5.10;99.90
16995;DHT22;8614;48.522;9.206;2024-02-23T07:17:46;5.10;99.90
16995;DHT22;8614;48.522;9.206;2024-02-23T07:20:13;5.20;99.90
16995;DHT22;8614;48.522;9.206;2024-02-23T07:22:44;5.20;99.90
16995;DHT22;8614;48.522;9.206;2024-02-23T07:25:12;5.20;99.90
16995;DHT22;8614;48.522;9.206;2024-02-23T07:27:42;5.20;99.90
16995;DHT22;8614;48.522;9.206;2024-02-23T07:30:10;5.30;99.90
16995;DHT22;8614;48.522;9.206;2024-02-23T07:32:37;5.40;99.90
16995;DHT22;8614;48.522;9.206;2024-02-23T07:35:04;5.50;99.90
16995;DHT22;8614;48.522;9.206;2024-02-23T07:37:31;5.60;99.90
16995;DHT22;8614;48.522;9.206;2024-02-23T07:39:59;5.60;99.90
16995;DHT22;8614;48.522;9.206;2024-02-23T07:42:26;5.70;99.90
16995;DHT22;8614;48.522;9.206;2024-02-23T07:44:53;5.80;99.90
16995;DHT22;8614;48.522;9.206;2024-02-23T07:47:20;5.80;99.90
16995;DHT22;8614;48.522;9.206;2024-02-23T07:49:47;5.80;99.90
16995;DHT22;8614;48.522;9.206;2024-02-23T07:52:13;5.90;99.90
16995;DHT22;8614;48.522;9.206;2024-02-23T07:54:40;5.90;99.90
16995;DHT22;8614;48.522;9.206;2024-02-23T07:57:08;5.90;99.90
16995;DHT22;8614;48.522;9.206;2024-02-23T07:59:35;5.90;99.90
16995;DHT22;8614;48.522;9.206;2024-02-23T08:02:02;5.90;99.90
16995;DHT22;8614;48.522;9.206;2024-02-23T08:04:29;6.00;99.90
16995;DHT22;8614;48.522;9.206;2024-02-23T08:06:55;6.00;99.90
16995;DHT22;8614;48.522;9.206;2024-02-23T08:09:23;6.10;99.90
16995;DHT22;8614;48.522;9.206;2024-02-23T08:11:50;6.10;99.90
16995;DHT22;8614;48.522;9.206;2024-02-23T08:14:18;6.10;99.90
16995;DHT22;8614;48.522;9.206;2024-02-23T08:16:45;6.10;99.90
16995;DHT22;8614;48.522;9.206;2024-02-23T08:19:12;6.10;99.90
16995;DHT22;8614;48.522;9.206;2024-02-23T08:21:38;6.20;99.90
16995;DHT22;8614;48.522;9.206;2024-02-23T08:24:07;6.20;99.90
16995;DHT22;8614;48.522;9.206;2024-02-23T08:26:33;6.30;99.90
16995;DHT22;8614;48.522;9.206;2024-02-23T08:29:00;6.30;99.90
16995;DHT22;8614;48.522;9.206;2024-02-23T08:31:28;6.40;99.90
16995;DHT22;8614;48.522;9.206;2024-02-23T08:33:55;6.40;99.90
16995;DHT22;8614;48.522;9.206;2024-02-23T08:36:22;6.50;99.90
16995;DHT22;8614;48.522;9.206;2024-02-23T08:38:49;6.60;99.90
16995;DHT22;8614;48.522;9.206;2024-02-23T08:41:17;6.60;99.90
16995;DHT22;8614;48.522;9.206;2024-02-23T08:43:44;6.70;99.90
16995;DHT22;8614;48.522;9.206;2024-02-23T08:46:11;6.70;99.90
16995;DHT22;8614;48.522;9.206;2024-02-23T08:48:39;6.80;99.90
16995;DHT22;8614;48.522;9.206;2024-02-23T08:51:06;6.90;99.90
16995;DHT22;8614;48.522;9.206;2024-02-23T08:53:33;6.90;99.90
16995;DHT22;8614;48.522;9.206;2024-02-23T08:56:00;7.00;99.90
16995;DHT22;8614;48.522;9.206;2024-02-23T08:58:27;7.10;99.90
16995;DHT22;8614;48.522;9.206;2024-02-23T09:00:54;7.10;99.90
16995;DHT22;8614;48.522;9.206;2024-02-23T09:03:20;7.10;99.90
16995;DHT22;8614;48.522;9.206;2024-02-23T09:05:49;7.10;99.90
16995;DHT22;8614;48.522;9.206;2024-02-23T09:08:16;7.10;99.90
16995;DHT22;8614;48.522;9.206;2024-02-23T09:10:43;7.20;99.90
16995;DHT22;8614;48.522;9.206;2024-02-23T09:13:10;7.20;99.90
16995;DHT22;8614;48.522;9.206;2024-02-23T09:15:37;7.30;99.90
16995;DHT22;8614;48.522;9.206;2024-02-23T09:18:04;7.40;99.90
16995;DHT22;8614;48.522;9.206;2024-02-23T09:20:31;7.40;99.90
16995;DHT22;8614;48.522;9.206;2024-02-23T09:22:59;7.30;99.90
16995;DHT22;8614;48.522;9.206;2024-02-23T09:25:26;7.40;99.90
16995;DHT22;8614;48.522;9.206;2024-02-23T09:27:56;7.50;99.90
16995;DHT22;8614;48.522;9.206;2024-02-23T09:30:23;7.50;99.90
16995;DHT22;8614;48.522;9.206;2024-02-23T09:32:50;7.60;99.90
16995;DHT22;8614;48.522;9.206;2024-02-23T09:35:17;7.70;99.90
16995;DHT22;8614;48.522;9.206;2024-02-23T09:37:43;7.60;99.90
16995;DHT22;8614;48.522;9.206;2024-02-23T09:40:12;7.80;99.90
16995;DHT22;8614;48.522;9.206;2024-02-23T09:42:40;7.80;99.90
16995;DHT22;8614;48.522;9.206;2024-02-23T09:45:11;7.90;99.90
16995;DHT22;8614;48.522;9.206;2024-02-23T09:47:38;7.80;99.90
16995;DHT22;8614;48.522;9.206;2024-02-23T09:50:08;8.00;99.90
16995;DHT22;8614;48.522;9.206;2024-02-23T09:52:36;8.20;99.90
16995;DHT22;8614;48.522;9.206;2024-02-23T09:55:03;8.40;99.90
16995;DHT22;8614;48.522;9.206;2024-02-23T09:57:31;8.40;99.90
16995;DHT22;8614;48.522;9.206;2024-02-23T09:59:58;8.40;99.90
16995;DHT22;8614;48.522;9.206;2024-02-23T10:02:25;8.30;99.90
16995;DHT22;8614;48.522;9.206;2024-02-23T10:04:54;8.40;99.90
16995;DHT22;8614;48.522;9.206;2024-02-23T10:07:23;8.50;99.90
16995;DHT22;8614;48.522;9.206;2024-02-23T10:09:51;8.50;99.90
16995;DHT22;8614;48.522;9.206;2024-02-23T10:12:17;8.50;99.90
16995;DHT22;8614;48.522;9.206;2024-02-23T10:14:46;8.60;99.90
16995;DHT22;8614;48.522;9.206;2024-02-23T10:17:12;8.70;99.90
16995;DHT22;8614;48.522;9.206;2024-02-23T10:19:39;8.80;99.90
16995;DHT22;8614;48.522;9.206;2024-02-23T10:22:06;8.90;99.90
16995;DHT22;8614;48.522;9.206;2024-02-23T10:24:33;8.80;99.90
16995;DHT22;8614;48.522;9.206;2024-02-23T10:27:00;8.80;99.90
16995;DHT22;8614;48.522;9.206;2024-02-23T10:29:28;8.70;99.90
16995;DHT22;8614;48.522;9.206;2024-02-23T10:31:57;8.70;99.90
16995;DHT22;8614;48.522;9.206;2024-02-23T10:34:24;8.70;99.90
16995;DHT22;8614;48.522;9.206;2024-02-23T10:36:53;8.70;99.90
16995;DHT22;8614;48.522;9.206;2024-02-23T10:39:23;8.70;99.90
16995;DHT22;8614;48.522;9.206;2024-02-23T10:41:56;8.70;99.90
16995;DHT22;8614;48.522;9.206;2024-02-23T10:44:24;8.60;99.90
16995;DHT22;8614;48.522;9.206;2024-02-23T10:46:51;8.70;99.90
16995;DHT22;8614;48.522;9.206;2024-02-23T10:49:23;8.70;99.90
16995;DHT22;8614;48.522;9.206;2024-02-23T10:51:51;8.70;99.90
16995;DHT22;8614;48.522;9.206;2024-02-23T10:54:19;8.90;99.90
16995;DHT22;8614;48.522;9.206;2024-02-23T10:56:48;9.10;99.90
16995;DHT22;8614;48.522;9.206;2024-02-23T10:59:16;9.20;99.90
16995;DHT22;8614;48.522;9.206;2024-02-23T11:01:44;9.30;99.90
16995;DHT22;8614;48.522;9.206;2024-02-23T11:04:13;9.20;99.90
16995;DHT22;8614;48.522;9.206;2024-02-23T11:06:48;9.30;99.90
16995;DHT22;8614;48.522;9.206;2024-02-23T11:09:15;9.30;99.90
16995;DHT22;8614;48.522;9.206;2024-02-23T11:11:52;9.30;99.90
16995;DHT22;8614;48.522;9.206;2024-02-23T11:14:29;9.30;99.90
16995;DHT22;8614;48.522;9.206;2024-02-23T11:16:56;9.30;99.90
16995;DHT22;8614;48.522;9.206;2024-02-23T11:19:32;9.20;99.90
16995;DHT22;8614;48.522;9.206;2024-02-23T11:22:01;9.20;99.90
16995;DHT22;8614;48.522;9.206;2024-02-23T11:24:29;9.20;99.90
16995;DHT22;8614;48.522;9.206;2024-02-23T11:26:59;9.20;99.90
16995;DHT22;8614;48.522;9.206;2024-02-23T11:29:34;9.20;99.90
16995;DHT22;8614;48.522;9.206;2024-02-23T11:32:02;9.20;99.90
16995;DHT22;8614;48.522;9.206;2024-02-23T11:34:30;9.00;99.90
16995;DHT22;8614;48.522;9.206;2024-02-23T11:36:57;8.90;99.90
16995;DHT22;8614;48.522;9.206;2024-02-23T11:39:26;8.90;99.90
16995;DHT22;8614;48.522;9.206;2024-02-23T11:41:53;8.80;99.90
16995;DHT22;8614;48.522;9.206;2024-02-23T11:44:20;8.80;99.90
16995;DHT22;8614;48.522;9.206;2024-02-23T11:46:47;8.70;99.90
16995;DHT22;8614;48.522;9.206;2024-02-23T11:49:14;8.80;99.90
16995;DHT22;8614;48.522;9.206;2024-02-23T11:51:41;8.70;99.90
16995;DHT22;8614;48.522;9.206;2024-02-23T11:54:08;8.70;99.90
16995;DHT22;8614;48.522;9.206;2024-02-23T11:56:36;8.70;99.90
16995;DHT22;8614;48.522;9.206;2024-02-23T11:59:03;8.80;99.90
16995;DHT22;8614;48.522;9.206;2024-02-23T12:01:31;8.90;99.90
16995;DHT22;8614;48.522;9.206;2024-02-23T12:03:58;8.90;99.90
16995;DHT22;8614;48.522;9.206;2024-02-23T12:06:24;9.00;99.90
16995;DHT22;8614;48.522;9.206;2024-02-23T12:08:54;9.10;99.90
16995;DHT22;8614;48.522;9.206;2024-02-23T12:11:21;9.00;99.90
16995;DHT22;8614;48.522;9.206;2024-02-23T12:13:50;9.00;99.90
16995;DHT22;8614;48.522;9.206;2024-02-23T12:16:17;8.90;99.90
16995;DHT22;8614;48.522;9.206;2024-02-23T12:18:44;8.90;99.90
16995;DHT22;8614;48.522;9.206;2024-02-23T12:21:11;9.00;99.90
16995;DHT22;8614;48.522;9.206;2024-02-23T12:23:43;9.10;99.90
16995;DHT22;8614;48.522;9.206;2024-02-23T12:26:11;9.00;99.90
16995;DHT22;8614;48.522;9.206;2024-02-23T12:28:39;9.10;99.90
16995;DHT22;8614;48.522;9.206;2024-02-23T12:31:07;9.20;99.90
16995;DHT22;8614;48.522;9.206;2024-02-23T12:33:35;9.10;99.90
16995;DHT22;8614;48.522;9.206;2024-02-23T12:36:04;9.00;99.90
16995;DHT22;8614;48.522;9.206;2024-02-23T12:38:31;9.10;99.90
16995;DHT22;8614;48.522;9.206;2024-02-23T12:40:59;9.20;99.90
16995;DHT22;8614;48.522;9.206;2024-02-23T12:43:26;9.10;99.90
16995;DHT22;8614;48.522;9.206;2024-02-23T12:45:54;9.30;99.90
16995;DHT22;8614;48.522;9.206;2024-02-23T12:48:22;9.30;99.90
16995;DHT22;8614;48.522;9.206;2024-02-23T12:50:50;9.20;99.90
16995;DHT22;8614;48.522;9.206;2024-02-23T12:53:31;9.30;99.90
16995;DHT22;8614;48.522;9.206;2024-02-23T12:55:59;9.40;99.90
16995;DHT22;8614;48.522;9.206;2024-02-23T12:58:26;9.40;99.90
16995;DHT22;8614;48.522;9.206;2024-02-23T13:00:53;9.30;99.90
16995;DHT22;8614;48.522;9.206;2024-02-23T13:03:21;9.30;99.90
16995;DHT22;8614;48.522;9.206;2024-02-23T13:05:48;9.30;99.90
16995;DHT22;8614;48.522;9.206;2024-02-23T13:08:16;9.30;99.90
16995;DHT22;8614;48.522;9.206;2024-02-23T13:10:43;9.30;99.90
16995;DHT22;8614;48.522;9.206;2024-02-23T13:13:10;9.40;99.90
16995;DHT22;8614;48.522;9.206;2024-02-23T13:15:37;9.50;99.90
16995;DHT22;8614;48.522;9.206;2024-02-23T13:18:04;9.50;99.90
16995;DHT22;8614;48.522;9.206;2024-02-23T13:20:32;9.60;99.90
16995;DHT22;8614;48.522;9.206;2024-02-23T13:22:59;9.60;99.90
16995;DHT22;8614;48.522;9.206;2024-02-23T13:25:27;9.60;99.90
16995;DHT22;8614;48.522;9.206;2024-02-23T13:27:54;9.50;99.90
16995;DHT22;8614;48.522;9.206;2024-02-23T13:30:21;9.50;99.90
16995;DHT22;8614;48.522;9.206;2024-02-23T13:32:48;9.40;99.90
16995;DHT22;8614;48.522;9.206;2024-02-23T13:35:15;9.30;99.90
16995;DHT22;8614;48.522;9.206;2024-02-23T13:37:43;9.40;99.90
16995;DHT22;8614;48.522;9.206;2024-02-23T13:40:10;9.50;99.90
16995;DHT22;8614;48.522;9.206;2024-02-23T13:42:38;9.60;99.90
16995;DHT22;8614;48.522;9.206;2024-02-23T13:45:06;9.60;99.90
16995;DHT22;8614;48.522;9.206;2024-02-23T13:47:34;9.60;99.90
16995;DHT22;8614;48.522;9.206;2024-02-23T13:50:01;9.50;99.90
16995;DHT22;8614;48.522;9.206;2024-02-23T13:52:28;9.50;99.90
16995;DHT22;8614;48.522;9.206;2024-02-23T13:54:59;9.50;99.90
16995;DHT22;8614;48.522;9.206;2024-02-23T13:57:26;9.50;99.90
16995;DHT22;8614;48.522;9.206;2024-02-23T13:59:53;9.60;99.90
16995;DHT22;8614;48.522;9.206;2024-02-23T14:02:25;9.60;99.90
16995;DHT22;8614;48.522;9.206;2024-02-23T14:04:52;9.50;99.90
16995;DHT22;8614;48.522;9.206;2024-02-23T14:07:20;9.50;99.90
16995;DHT22;8614;48.522;9.206;2024-02-23T14:09:46;9.40;99.90
16995;DHT22;8614;48.522;9.206;2024-02-23T14:12:15;9.40;99.90
16995;DHT22;8614;48.522;9.206;2024-02-23T14:14:43;9.40;99.90
16995;DHT22;8614;48.522;9.206;2024-02-23T14:17:09;9.40;99.90
16995;DHT22;8614;48.522;9.206;2024-02-23T14:19:36;9.40;99.90
16995;DHT22;8614;48.522;9.206;2024-02-23T14:22:03;9.50;99.90
16995;DHT22;8614;48.522;9.206;2024-02-23T14:24:30;9.50;99.90
16995;DHT22;8614;48.522;9.206;2024-02-23T14:26:57;9.50;99.90
16995;DHT22;8614;48.522;9.206;2024-02-23T14:29:25;9.50;99.90
16995;DHT22;8614;48.522;9.206;2024-02-23T14:31:52;9.50;99.90
16995;DHT22;8614;48.522;9.206;2024-02-23T14:34:19;9.50;99.90
16995;DHT22;8614;48.522;9.206;2024-02-23T14:36:49;9.60;99.90
16995;DHT22;8614;48.522;9.206;2024-02-23T14:39:16;9.60;99.90
16995;DHT22;8614;48.522;9.206;2024-02-23T14:41:43;9.60;99.90
16995;DHT22;8614;48.522;9.206;2024-02-23T14:44:09;9.70;99.90
16995;DHT22;8614;48.522;9.206;2024-02-23T14:46:37;9.80;99.90
16995;DHT22;8614;48.522;9.206;2024-02-23T14:49:04;9.90;99.90
16995;DHT22;8614;48.522;9.206;2024-02-23T14:51:31;9.80;99.90
16995;DHT22;8614;48.522;9.206;2024-02-23T14:53:58;9.80;99.90
16995;DHT22;8614;48.522;9.206;2024-02-23T14:56:24;9.80;99.90
16995;DHT22;8614;48.522;9.206;2024-02-23T14:58:51;9.80;99.90
16995;DHT22;8614;48.522;9.206;2024-02-23T15:01:18;9.70;99.90
16995;DHT22;8614;48.522;9.206;2024-02-23T15:03:46;9.70;99.90
16995;DHT22;8614;48.522;9.206;2024-02-23T15:06:13;9.60;99.90
16995;DHT22;8614;48.522;9.206;2024-02-23T15:08:40;9.50;99.90
16995;DHT22;8614;48.522;9.206;2024-02-23T15:11:07;9.40;99.90
16995;DHT22;8614;48.522;9.206;2024-02-23T15:13:34;9.50;99.90
16995;DHT22;8614;48.522;9.206;2024-02-23T15:16:01;9.50;99.90
16995;DHT22;8614;48.522;9.206;2024-02-23T15:18:28;9.60;99.90
16995;DHT22;8614;48.522;9.206;2024-02-23T15:20:56;9.70;99.90
16995;DHT22;8614;48.522;9.206;2024-02-23T15:23:23;9.80;99.90
16995;DHT22;8614;48.522;9.206;2024-02-23T15:25:50;9.80;99.90
16995;DHT22;8614;48.522;9.206;2024-02-23T15:28:17;9.70;99.90
16995;DHT22;8614;48.522;9.206;2024-02-23T15:30:48;9.60;99.90
16995;DHT22;8614;48.522;9.206;2024-02-23T15:33:15;9.50;99.90
16995;DHT22;8614;48.522;9.206;2024-02-23T15:35:42;9.60;99.90
16995;DHT22;8614;48.522;9.206;2024-02-23T15:38:10;9.60;99.90
16995;DHT22;8614;48.522;9.206;2024-02-23T15:40:37;9.50;99.90
16995;DHT22;8614;48.522;9.206;2024-02-23T15:43:04;9.40;99.90
16995;DHT22;8614;48.522;9.206;2024-02-23T15:45:31;9.30;99.90
16995;DHT22;8614;48.522;9.206;2024-02-23T15:47:58;9.20;99.90
16995;DHT22;8614;48.522;9.206;2024-02-23T15:50:24;9.30;99.90
16995;DHT22;8614;48.522;9.206;2024-02-23T15:52:53;9.30;99.90
16995;DHT22;8614;48.522;9.206;2024-02-23T15:55:21;9.30;99.90
16995;DHT22;8614;48.522;9.206;2024-02-23T15:57:48;9.20;99.90
16995;DHT22;8614;48.522;9.206;2024-02-23T16:00:15;9.20;99.90
16995;DHT22;8614;48.522;9.206;2024-02-23T16:02:42;9.20;99.90